<?xml version="1.0" encoding="UTF-8" standalone="no" ?>
<gpx xmlns="http://www.topografix.com/GPX/1/1" xmlns:xsi="http://www.w3.org/2001/XMLSchema-instance" xsi:schemaLocation="http://www.topografix.com/GPX/1/1 http://www.topografix.com/GPX/1/1/gpx.xsd" version="1.1" creator="VisuGPX - https://www.visugpx.com">
  <metadata>
    <name>2024-03-21-46-Caillac</name>
    <desc><![CDATA[Randonnée de 9 km sans difficulté. A partir du lac de Caillac sur un circuit entre vignobles les châteaux de Lagrézette, Laroque, Les Bouysses vous surveilleront de plus ou moins près. beaux paysages à voir ]]></desc>
  </metadata>
  <trk>
    <name><![CDATA[Caillac-Bouysse-18428640-18588463]]></name>
    <trkseg>
      <trkpt lat="44.48969" lon="1.35337">
        <ele>114</ele>
        <time>2024-03-22T09:44:20Z</time>
      </trkpt>
      <trkpt lat="44.48965" lon="1.35335">
        <ele>114</ele>
        <time>2024-03-22T09:44:26Z</time>
      </trkpt>
      <trkpt lat="44.48967" lon="1.35338">
        <ele>114</ele>
        <time>2024-03-22T09:44:30Z</time>
      </trkpt>
      <trkpt lat="44.48966" lon="1.35336">
        <ele>114</ele>
        <time>2024-03-22T09:44:32Z</time>
      </trkpt>
      <trkpt lat="44.48966" lon="1.3534">
        <ele>114</ele>
        <time>2024-03-22T09:44:36Z</time>
      </trkpt>
      <trkpt lat="44.48968" lon="1.35336">
        <ele>114</ele>
        <time>2024-03-22T09:44:40Z</time>
      </trkpt>
      <trkpt lat="44.48966" lon="1.35336">
        <ele>114</ele>
        <time>2024-03-22T09:44:43Z</time>
      </trkpt>
      <trkpt lat="44.48968" lon="1.35338">
        <ele>114</ele>
        <time>2024-03-22T09:44:46Z</time>
      </trkpt>
      <trkpt lat="44.48966" lon="1.35335">
        <ele>114</ele>
        <time>2024-03-22T09:44:50Z</time>
      </trkpt>
      <trkpt lat="44.48968" lon="1.35335">
        <ele>114</ele>
        <time>2024-03-22T09:44:53Z</time>
      </trkpt>
      <trkpt lat="44.48967" lon="1.35334">
        <ele>114</ele>
        <time>2024-03-22T09:44:55Z</time>
      </trkpt>
      <trkpt lat="44.48965" lon="1.35336">
        <ele>114</ele>
        <time>2024-03-22T09:44:58Z</time>
      </trkpt>
      <trkpt lat="44.48966" lon="1.35338">
        <ele>114</ele>
        <time>2024-03-22T09:45:00Z</time>
      </trkpt>
      <trkpt lat="44.48967" lon="1.35336">
        <ele>114</ele>
        <time>2024-03-22T09:45:02Z</time>
      </trkpt>
      <trkpt lat="44.48958" lon="1.35339">
        <ele>114</ele>
        <time>2024-03-22T09:45:15Z</time>
      </trkpt>
      <trkpt lat="44.48965" lon="1.35336">
        <ele>114</ele>
        <time>2024-03-22T09:45:25Z</time>
      </trkpt>
      <trkpt lat="44.48968" lon="1.35338">
        <ele>114</ele>
        <time>2024-03-22T09:45:29Z</time>
      </trkpt>
      <trkpt lat="44.48968" lon="1.35336">
        <ele>114</ele>
        <time>2024-03-22T09:45:31Z</time>
      </trkpt>
      <trkpt lat="44.48966" lon="1.35338">
        <ele>114</ele>
        <time>2024-03-22T09:45:34Z</time>
      </trkpt>
      <trkpt lat="44.48967" lon="1.35337">
        <ele>114</ele>
        <time>2024-03-22T09:45:36Z</time>
      </trkpt>
      <trkpt lat="44.4897" lon="1.35338">
        <ele>114</ele>
        <time>2024-03-22T09:45:40Z</time>
      </trkpt>
      <trkpt lat="44.48963" lon="1.35337">
        <ele>114</ele>
        <time>2024-03-22T09:45:49Z</time>
      </trkpt>
      <trkpt lat="44.48963" lon="1.35344">
        <ele>114</ele>
        <time>2024-03-22T09:45:56Z</time>
      </trkpt>
      <trkpt lat="44.48972" lon="1.35358">
        <ele>114</ele>
        <time>2024-03-22T09:46:14Z</time>
      </trkpt>
      <trkpt lat="44.48973" lon="1.35362">
        <ele>114</ele>
        <time>2024-03-22T09:46:18Z</time>
      </trkpt>
      <trkpt lat="44.48973" lon="1.35368">
        <ele>114</ele>
        <time>2024-03-22T09:46:24Z</time>
      </trkpt>
      <trkpt lat="44.48968" lon="1.35377">
        <ele>114</ele>
        <time>2024-03-22T09:46:35Z</time>
      </trkpt>
      <trkpt lat="44.48968" lon="1.35384">
        <ele>114</ele>
        <time>2024-03-22T09:46:41Z</time>
      </trkpt>
      <trkpt lat="44.48963" lon="1.35396">
        <ele>114</ele>
        <time>2024-03-22T09:46:54Z</time>
      </trkpt>
      <trkpt lat="44.48944" lon="1.35414">
        <ele>114</ele>
        <time>2024-03-22T09:47:25Z</time>
      </trkpt>
      <trkpt lat="44.48929" lon="1.35446">
        <ele>115</ele>
        <time>2024-03-22T09:48:01Z</time>
      </trkpt>
      <trkpt lat="44.48882" lon="1.35508">
        <ele>115</ele>
        <time>2024-03-22T09:49:28Z</time>
      </trkpt>
      <trkpt lat="44.48841" lon="1.35577">
        <ele>117</ele>
        <time>2024-03-22T09:50:53Z</time>
      </trkpt>
      <trkpt lat="44.48811" lon="1.35615">
        <ele>118</ele>
        <time>2024-03-22T09:51:47Z</time>
      </trkpt>
      <trkpt lat="44.48761" lon="1.35685">
        <ele>119</ele>
        <time>2024-03-22T09:53:21Z</time>
      </trkpt>
      <trkpt lat="44.48734" lon="1.3572">
        <ele>121</ele>
        <time>2024-03-22T09:54:10Z</time>
      </trkpt>
      <trkpt lat="44.48696" lon="1.35758">
        <ele>120</ele>
        <time>2024-03-22T09:55:13Z</time>
      </trkpt>
      <trkpt lat="44.48619" lon="1.35824">
        <ele>120</ele>
        <time>2024-03-22T09:57:13Z</time>
      </trkpt>
      <trkpt lat="44.48589" lon="1.35859">
        <ele>120</ele>
        <time>2024-03-22T09:58:05Z</time>
      </trkpt>
      <trkpt lat="44.4856" lon="1.35884">
        <ele>121</ele>
        <time>2024-03-22T09:58:51Z</time>
      </trkpt>
      <trkpt lat="44.48548" lon="1.35898">
        <ele>121</ele>
        <time>2024-03-22T09:59:11Z</time>
      </trkpt>
      <trkpt lat="44.48529" lon="1.35933">
        <ele>124</ele>
        <time>2024-03-22T09:59:53Z</time>
      </trkpt>
      <trkpt lat="44.48494" lon="1.35985">
        <ele>131</ele>
        <time>2024-03-22T10:01:01Z</time>
      </trkpt>
      <trkpt lat="44.48487" lon="1.35998">
        <ele>133</ele>
        <time>2024-03-22T10:01:17Z</time>
      </trkpt>
      <trkpt lat="44.48486" lon="1.36015">
        <ele>134</ele>
        <time>2024-03-22T10:01:33Z</time>
      </trkpt>
      <trkpt lat="44.48489" lon="1.36032">
        <ele>136</ele>
        <time>2024-03-22T10:01:50Z</time>
      </trkpt>
      <trkpt lat="44.4849" lon="1.36036">
        <ele>136</ele>
        <time>2024-03-22T10:01:54Z</time>
      </trkpt>
      <trkpt lat="44.48494" lon="1.36037">
        <ele>136</ele>
        <time>2024-03-22T10:01:59Z</time>
      </trkpt>
      <trkpt lat="44.48487" lon="1.36052">
        <ele>137</ele>
        <time>2024-03-22T10:02:16Z</time>
      </trkpt>
      <trkpt lat="44.48487" lon="1.36075">
        <ele>139</ele>
        <time>2024-03-22T10:02:38Z</time>
      </trkpt>
      <trkpt lat="44.48479" lon="1.3612">
        <ele>139</ele>
        <time>2024-03-22T10:03:22Z</time>
      </trkpt>
      <trkpt lat="44.48472" lon="1.36139">
        <ele>138</ele>
        <time>2024-03-22T10:03:43Z</time>
      </trkpt>
      <trkpt lat="44.48464" lon="1.36155">
        <ele>138</ele>
        <time>2024-03-22T10:04:01Z</time>
      </trkpt>
      <trkpt lat="44.48464" lon="1.36158">
        <ele>138</ele>
        <time>2024-03-22T10:04:04Z</time>
      </trkpt>
      <trkpt lat="44.48467" lon="1.36165">
        <ele>138</ele>
        <time>2024-03-22T10:04:12Z</time>
      </trkpt>
      <trkpt lat="44.48501" lon="1.36185">
        <ele>137</ele>
        <time>2024-03-22T10:05:01Z</time>
      </trkpt>
      <trkpt lat="44.4857" lon="1.36222">
        <ele>137</ele>
        <time>2024-03-22T10:06:40Z</time>
      </trkpt>
      <trkpt lat="44.48584" lon="1.36231">
        <ele>137</ele>
        <time>2024-03-22T10:07:00Z</time>
      </trkpt>
      <trkpt lat="44.48586" lon="1.36235">
        <ele>137</ele>
        <time>2024-03-22T10:07:05Z</time>
      </trkpt>
      <trkpt lat="44.48583" lon="1.36248">
        <ele>137</ele>
        <time>2024-03-22T10:07:18Z</time>
      </trkpt>
      <trkpt lat="44.48566" lon="1.36284">
        <ele>136</ele>
        <time>2024-03-22T10:07:59Z</time>
      </trkpt>
      <trkpt lat="44.48544" lon="1.36323">
        <ele>133</ele>
        <time>2024-03-22T10:08:46Z</time>
      </trkpt>
      <trkpt lat="44.48539" lon="1.36338">
        <ele>132</ele>
        <time>2024-03-22T10:09:02Z</time>
      </trkpt>
      <trkpt lat="44.48527" lon="1.36359">
        <ele>128</ele>
        <time>2024-03-22T10:09:28Z</time>
      </trkpt>
      <trkpt lat="44.48524" lon="1.36387">
        <ele>125</ele>
        <time>2024-03-22T10:09:55Z</time>
      </trkpt>
      <trkpt lat="44.48517" lon="1.36405">
        <ele>122</ele>
        <time>2024-03-22T10:10:14Z</time>
      </trkpt>
      <trkpt lat="44.48512" lon="1.36425">
        <ele>119</ele>
        <time>2024-03-22T10:10:34Z</time>
      </trkpt>
      <trkpt lat="44.48501" lon="1.3644">
        <ele>116</ele>
        <time>2024-03-22T10:10:55Z</time>
      </trkpt>
      <trkpt lat="44.48483" lon="1.3643">
        <ele>116</ele>
        <time>2024-03-22T10:11:21Z</time>
      </trkpt>
      <trkpt lat="44.48424" lon="1.36403">
        <ele>115</ele>
        <time>2024-03-22T10:12:44Z</time>
      </trkpt>
      <trkpt lat="44.48388" lon="1.36384">
        <ele>116</ele>
        <time>2024-03-22T10:13:35Z</time>
      </trkpt>
      <trkpt lat="44.48376" lon="1.36375">
        <ele>116</ele>
        <time>2024-03-22T10:13:53Z</time>
      </trkpt>
      <trkpt lat="44.48376" lon="1.36376">
        <ele>116</ele>
        <time>2024-03-22T10:13:54Z</time>
      </trkpt>
      <trkpt lat="44.48363" lon="1.36372">
        <ele>116</ele>
        <time>2024-03-22T10:14:12Z</time>
      </trkpt>
      <trkpt lat="44.48349" lon="1.36381">
        <ele>114</ele>
        <time>2024-03-22T10:14:32Z</time>
      </trkpt>
      <trkpt lat="44.48337" lon="1.36396">
        <ele>111</ele>
        <time>2024-03-22T10:14:54Z</time>
      </trkpt>
      <trkpt lat="44.48321" lon="1.36411">
        <ele>110</ele>
        <time>2024-03-22T10:15:20Z</time>
      </trkpt>
      <trkpt lat="44.483" lon="1.36427">
        <ele>109</ele>
        <time>2024-03-22T10:15:51Z</time>
      </trkpt>
      <trkpt lat="44.48286" lon="1.36442">
        <ele>109</ele>
        <time>2024-03-22T10:16:15Z</time>
      </trkpt>
      <trkpt lat="44.48274" lon="1.36462">
        <ele>109</ele>
        <time>2024-03-22T10:16:40Z</time>
      </trkpt>
      <trkpt lat="44.48248" lon="1.36553">
        <ele>109</ele>
        <time>2024-03-22T10:18:13Z</time>
      </trkpt>
      <trkpt lat="44.48231" lon="1.36605">
        <ele>113</ele>
        <time>2024-03-22T10:19:08Z</time>
      </trkpt>
      <trkpt lat="44.48235" lon="1.36617">
        <ele>114</ele>
        <time>2024-03-22T10:19:20Z</time>
      </trkpt>
      <trkpt lat="44.48235" lon="1.36638">
        <ele>116</ele>
        <time>2024-03-22T10:19:40Z</time>
      </trkpt>
      <trkpt lat="44.48224" lon="1.36644">
        <ele>118</ele>
        <time>2024-03-22T10:19:56Z</time>
      </trkpt>
      <trkpt lat="44.48217" lon="1.36642">
        <ele>118</ele>
        <time>2024-03-22T10:20:05Z</time>
      </trkpt>
      <trkpt lat="44.48215" lon="1.3664">
        <ele>118</ele>
        <time>2024-03-22T10:20:09Z</time>
      </trkpt>
      <trkpt lat="44.48196" lon="1.36593">
        <ele>115</ele>
        <time>2024-03-22T10:21:00Z</time>
      </trkpt>
      <trkpt lat="44.48183" lon="1.36582">
        <ele>115</ele>
        <time>2024-03-22T10:21:20Z</time>
      </trkpt>
      <trkpt lat="44.48168" lon="1.36578">
        <ele>116</ele>
        <time>2024-03-22T10:21:41Z</time>
      </trkpt>
      <trkpt lat="44.48149" lon="1.36584">
        <ele>119</ele>
        <time>2024-03-22T10:22:07Z</time>
      </trkpt>
      <trkpt lat="44.48146" lon="1.3658">
        <ele>119</ele>
        <time>2024-03-22T10:22:12Z</time>
      </trkpt>
      <trkpt lat="44.48142" lon="1.36579">
        <ele>119</ele>
        <time>2024-03-22T10:22:18Z</time>
      </trkpt>
      <trkpt lat="44.48146" lon="1.36593">
        <ele>120</ele>
        <time>2024-03-22T10:22:32Z</time>
      </trkpt>
      <trkpt lat="44.48145" lon="1.36592">
        <ele>120</ele>
        <time>2024-03-22T10:22:34Z</time>
      </trkpt>
      <trkpt lat="44.48169" lon="1.36625">
        <ele>120</ele>
        <time>2024-03-22T10:23:19Z</time>
      </trkpt>
      <trkpt lat="44.48209" lon="1.36673">
        <ele>121</ele>
        <time>2024-03-22T10:24:29Z</time>
      </trkpt>
      <trkpt lat="44.48222" lon="1.36687">
        <ele>122</ele>
        <time>2024-03-22T10:24:51Z</time>
      </trkpt>
      <trkpt lat="44.48255" lon="1.36709">
        <ele>123</ele>
        <time>2024-03-22T10:25:40Z</time>
      </trkpt>
      <trkpt lat="44.48287" lon="1.36725">
        <ele>124</ele>
        <time>2024-03-22T10:26:25Z</time>
      </trkpt>
      <trkpt lat="44.48307" lon="1.36732">
        <ele>123</ele>
        <time>2024-03-22T10:26:52Z</time>
      </trkpt>
      <trkpt lat="44.48351" lon="1.36753">
        <ele>124</ele>
        <time>2024-03-22T10:27:54Z</time>
      </trkpt>
      <trkpt lat="44.48372" lon="1.3676">
        <ele>123</ele>
        <time>2024-03-22T10:28:23Z</time>
      </trkpt>
      <trkpt lat="44.4841" lon="1.36783">
        <ele>124</ele>
        <time>2024-03-22T10:29:18Z</time>
      </trkpt>
      <trkpt lat="44.48457" lon="1.368">
        <ele>124</ele>
        <time>2024-03-22T10:30:23Z</time>
      </trkpt>
      <trkpt lat="44.48459" lon="1.36803">
        <ele>125</ele>
        <time>2024-03-22T10:30:27Z</time>
      </trkpt>
      <trkpt lat="44.48475" lon="1.36813">
        <ele>125</ele>
        <time>2024-03-22T10:30:51Z</time>
      </trkpt>
      <trkpt lat="44.48507" lon="1.36824">
        <ele>126</ele>
        <time>2024-03-22T10:31:35Z</time>
      </trkpt>
      <trkpt lat="44.48522" lon="1.36832">
        <ele>127</ele>
        <time>2024-03-22T10:31:56Z</time>
      </trkpt>
      <trkpt lat="44.48585" lon="1.36849">
        <ele>130</ele>
        <time>2024-03-22T10:33:22Z</time>
      </trkpt>
      <trkpt lat="44.48633" lon="1.36873">
        <ele>128</ele>
        <time>2024-03-22T10:34:30Z</time>
      </trkpt>
      <trkpt lat="44.48649" lon="1.36886">
        <ele>128</ele>
        <time>2024-03-22T10:34:54Z</time>
      </trkpt>
      <trkpt lat="44.48661" lon="1.36893">
        <ele>127</ele>
        <time>2024-03-22T10:35:12Z</time>
      </trkpt>
      <trkpt lat="44.48685" lon="1.36918">
        <ele>128</ele>
        <time>2024-03-22T10:35:51Z</time>
      </trkpt>
      <trkpt lat="44.48687" lon="1.36918">
        <ele>128</ele>
        <time>2024-03-22T10:35:54Z</time>
      </trkpt>
      <trkpt lat="44.48675" lon="1.36908">
        <ele>128</ele>
        <time>2024-03-22T10:36:13Z</time>
      </trkpt>
      <trkpt lat="44.4867" lon="1.36908">
        <ele>128</ele>
        <time>2024-03-22T10:36:19Z</time>
      </trkpt>
      <trkpt lat="44.48661" lon="1.36913">
        <ele>129</ele>
        <time>2024-03-22T10:36:32Z</time>
      </trkpt>
      <trkpt lat="44.4864" lon="1.36968">
        <ele>135</ele>
        <time>2024-03-22T10:37:32Z</time>
      </trkpt>
      <trkpt lat="44.48582" lon="1.3709">
        <ele>137</ele>
        <time>2024-03-22T10:39:51Z</time>
      </trkpt>
      <trkpt lat="44.48493" lon="1.37288">
        <ele>143</ele>
        <time>2024-03-22T10:43:34Z</time>
      </trkpt>
      <trkpt lat="44.48474" lon="1.37329">
        <ele>145</ele>
        <time>2024-03-22T10:44:21Z</time>
      </trkpt>
      <trkpt lat="44.48468" lon="1.37332">
        <ele>145</ele>
        <time>2024-03-22T10:44:29Z</time>
      </trkpt>
      <trkpt lat="44.48468" lon="1.37343">
        <ele>145</ele>
        <time>2024-03-22T10:44:40Z</time>
      </trkpt>
      <trkpt lat="44.48462" lon="1.37359">
        <ele>146</ele>
        <time>2024-03-22T10:44:57Z</time>
      </trkpt>
      <trkpt lat="44.48433" lon="1.37416">
        <ele>148</ele>
        <time>2024-03-22T10:46:04Z</time>
      </trkpt>
      <trkpt lat="44.48389" lon="1.37496">
        <ele>151</ele>
        <time>2024-03-22T10:47:40Z</time>
      </trkpt>
      <trkpt lat="44.4864" lon="1.37856">
        <ele>149</ele>
        <time>2024-03-22T10:55:39Z</time>
      </trkpt>
      <trkpt lat="44.48768" lon="1.38015">
        <ele>144</ele>
        <time>2024-03-22T10:59:27Z</time>
      </trkpt>
      <trkpt lat="44.48816" lon="1.38072">
        <ele>145</ele>
        <time>2024-03-22T11:00:51Z</time>
      </trkpt>
      <trkpt lat="44.48878" lon="1.38079">
        <ele>145</ele>
        <time>2024-03-22T11:02:14Z</time>
      </trkpt>
      <trkpt lat="44.48905" lon="1.38084">
        <ele>145</ele>
        <time>2024-03-22T11:02:50Z</time>
      </trkpt>
      <trkpt lat="44.48925" lon="1.38082">
        <ele>144</ele>
        <time>2024-03-22T11:03:17Z</time>
      </trkpt>
      <trkpt lat="44.4895" lon="1.38071">
        <ele>143</ele>
        <time>2024-03-22T11:03:52Z</time>
      </trkpt>
      <trkpt lat="44.48957" lon="1.38064">
        <ele>142</ele>
        <time>2024-03-22T11:04:04Z</time>
      </trkpt>
      <trkpt lat="44.48956" lon="1.38051">
        <ele>142</ele>
        <time>2024-03-22T11:04:16Z</time>
      </trkpt>
      <trkpt lat="44.48945" lon="1.38022">
        <ele>141</ele>
        <time>2024-03-22T11:04:47Z</time>
      </trkpt>
      <trkpt lat="44.48943" lon="1.38007">
        <ele>141</ele>
        <time>2024-03-22T11:05:02Z</time>
      </trkpt>
      <trkpt lat="44.48941" lon="1.37945">
        <ele>140</ele>
        <time>2024-03-22T11:06:01Z</time>
      </trkpt>
      <trkpt lat="44.48942" lon="1.37917">
        <ele>140</ele>
        <time>2024-03-22T11:06:28Z</time>
      </trkpt>
      <trkpt lat="44.48944" lon="1.37893">
        <ele>140</ele>
        <time>2024-03-22T11:06:51Z</time>
      </trkpt>
      <trkpt lat="44.48949" lon="1.37866">
        <ele>140</ele>
        <time>2024-03-22T11:07:17Z</time>
      </trkpt>
      <trkpt lat="44.48955" lon="1.37837">
        <ele>139</ele>
        <time>2024-03-22T11:07:46Z</time>
      </trkpt>
      <trkpt lat="44.48963" lon="1.37813">
        <ele>139</ele>
        <time>2024-03-22T11:08:11Z</time>
      </trkpt>
      <trkpt lat="44.48968" lon="1.37778">
        <ele>138</ele>
        <time>2024-03-22T11:08:45Z</time>
      </trkpt>
      <trkpt lat="44.4897" lon="1.3775">
        <ele>137</ele>
        <time>2024-03-22T11:09:12Z</time>
      </trkpt>
      <trkpt lat="44.48968" lon="1.37721">
        <ele>137</ele>
        <time>2024-03-22T11:09:40Z</time>
      </trkpt>
      <trkpt lat="44.4897" lon="1.37661">
        <ele>136</ele>
        <time>2024-03-22T11:10:37Z</time>
      </trkpt>
      <trkpt lat="44.48974" lon="1.37643">
        <ele>136</ele>
        <time>2024-03-22T11:10:55Z</time>
      </trkpt>
      <trkpt lat="44.48963" lon="1.3757">
        <ele>136</ele>
        <time>2024-03-22T11:12:06Z</time>
      </trkpt>
      <trkpt lat="44.48955" lon="1.37546">
        <ele>136</ele>
        <time>2024-03-22T11:12:31Z</time>
      </trkpt>
      <trkpt lat="44.48952" lon="1.37511">
        <ele>135</ele>
        <time>2024-03-22T11:13:05Z</time>
      </trkpt>
      <trkpt lat="44.48958" lon="1.37501">
        <ele>136</ele>
        <time>2024-03-22T11:13:17Z</time>
      </trkpt>
      <trkpt lat="44.48968" lon="1.37511">
        <ele>136</ele>
        <time>2024-03-22T11:13:33Z</time>
      </trkpt>
      <trkpt lat="44.48986" lon="1.37523">
        <ele>137</ele>
        <time>2024-03-22T11:14:00Z</time>
      </trkpt>
      <trkpt lat="44.49047" lon="1.37584">
        <ele>138</ele>
        <time>2024-03-22T11:15:40Z</time>
      </trkpt>
      <trkpt lat="44.49063" lon="1.37593">
        <ele>138</ele>
        <time>2024-03-22T11:16:03Z</time>
      </trkpt>
      <trkpt lat="44.49081" lon="1.376">
        <ele>138</ele>
        <time>2024-03-22T11:16:28Z</time>
      </trkpt>
      <trkpt lat="44.491" lon="1.37605">
        <ele>138</ele>
        <time>2024-03-22T11:16:54Z</time>
      </trkpt>
      <trkpt lat="44.49135" lon="1.37621">
        <ele>138</ele>
        <time>2024-03-22T11:17:43Z</time>
      </trkpt>
      <trkpt lat="44.49184" lon="1.37652">
        <ele>139</ele>
        <time>2024-03-22T11:18:55Z</time>
      </trkpt>
      <trkpt lat="44.49215" lon="1.37666">
        <ele>138</ele>
        <time>2024-03-22T11:19:38Z</time>
      </trkpt>
      <trkpt lat="44.4934" lon="1.37755">
        <ele>142</ele>
        <time>2024-03-22T11:22:45Z</time>
      </trkpt>
      <trkpt lat="44.49423" lon="1.37824">
        <ele>145</ele>
        <time>2024-03-22T11:24:54Z</time>
      </trkpt>
      <trkpt lat="44.49426" lon="1.37823">
        <ele>145</ele>
        <time>2024-03-22T11:24:58Z</time>
      </trkpt>
      <trkpt lat="44.4943" lon="1.37825">
        <ele>145</ele>
        <time>2024-03-22T11:25:04Z</time>
      </trkpt>
      <trkpt lat="44.4943" lon="1.37821">
        <ele>145</ele>
        <time>2024-03-22T11:25:08Z</time>
      </trkpt>
      <trkpt lat="44.49433" lon="1.37817">
        <ele>145</ele>
        <time>2024-03-22T11:25:13Z</time>
      </trkpt>
      <trkpt lat="44.4941" lon="1.37713">
        <ele>145</ele>
        <time>2024-03-22T11:26:57Z</time>
      </trkpt>
      <trkpt lat="44.49381" lon="1.37642">
        <ele>142</ele>
        <time>2024-03-22T11:28:15Z</time>
      </trkpt>
      <trkpt lat="44.49363" lon="1.37582">
        <ele>142</ele>
        <time>2024-03-22T11:29:17Z</time>
      </trkpt>
      <trkpt lat="44.49354" lon="1.37544">
        <ele>143</ele>
        <time>2024-03-22T11:29:55Z</time>
      </trkpt>
      <trkpt lat="44.49345" lon="1.37517">
        <ele>144</ele>
        <time>2024-03-22T11:30:23Z</time>
      </trkpt>
      <trkpt lat="44.49327" lon="1.37472">
        <ele>144</ele>
        <time>2024-03-22T11:31:12Z</time>
      </trkpt>
      <trkpt lat="44.49293" lon="1.37401">
        <ele>146</ele>
        <time>2024-03-22T11:32:34Z</time>
      </trkpt>
      <trkpt lat="44.49242" lon="1.37317">
        <ele>147</ele>
        <time>2024-03-22T11:34:19Z</time>
      </trkpt>
      <trkpt lat="44.49185" lon="1.37189">
        <ele>147</ele>
        <time>2024-03-22T11:36:42Z</time>
      </trkpt>
      <trkpt lat="44.49162" lon="1.37153">
        <ele>147</ele>
        <time>2024-03-22T11:37:28Z</time>
      </trkpt>
      <trkpt lat="44.49126" lon="1.3708">
        <ele>149</ele>
        <time>2024-03-22T11:38:53Z</time>
      </trkpt>
      <trkpt lat="44.49111" lon="1.37061">
        <ele>147</ele>
        <time>2024-03-22T11:39:20Z</time>
      </trkpt>
      <trkpt lat="44.49092" lon="1.37049">
        <ele>146</ele>
        <time>2024-03-22T11:39:47Z</time>
      </trkpt>
      <trkpt lat="44.49086" lon="1.37043">
        <ele>146</ele>
        <time>2024-03-22T11:39:57Z</time>
      </trkpt>
      <trkpt lat="44.49072" lon="1.37012">
        <ele>145</ele>
        <time>2024-03-22T11:40:32Z</time>
      </trkpt>
      <trkpt lat="44.4906" lon="1.37">
        <ele>144</ele>
        <time>2024-03-22T11:40:52Z</time>
      </trkpt>
      <trkpt lat="44.49043" lon="1.36995">
        <ele>143</ele>
        <time>2024-03-22T11:41:15Z</time>
      </trkpt>
      <trkpt lat="44.48986" lon="1.36988">
        <ele>140</ele>
        <time>2024-03-22T11:42:31Z</time>
      </trkpt>
      <trkpt lat="44.48936" lon="1.3699">
        <ele>140</ele>
        <time>2024-03-22T11:43:38Z</time>
      </trkpt>
      <trkpt lat="44.48919" lon="1.36989">
        <ele>139</ele>
        <time>2024-03-22T11:44:01Z</time>
      </trkpt>
      <trkpt lat="44.48897" lon="1.36993">
        <ele>138</ele>
        <time>2024-03-22T11:44:31Z</time>
      </trkpt>
      <trkpt lat="44.48863" lon="1.36996">
        <ele>135</ele>
        <time>2024-03-22T11:45:16Z</time>
      </trkpt>
      <trkpt lat="44.48849" lon="1.3699">
        <ele>134</ele>
        <time>2024-03-22T11:45:36Z</time>
      </trkpt>
      <trkpt lat="44.4883" lon="1.36947">
        <ele>132</ele>
        <time>2024-03-22T11:46:24Z</time>
      </trkpt>
      <trkpt lat="44.48797" lon="1.36904">
        <ele>127</ele>
        <time>2024-03-22T11:47:24Z</time>
      </trkpt>
      <trkpt lat="44.48783" lon="1.3688">
        <ele>124</ele>
        <time>2024-03-22T11:47:53Z</time>
      </trkpt>
      <trkpt lat="44.48757" lon="1.36858">
        <ele>121</ele>
        <time>2024-03-22T11:48:34Z</time>
      </trkpt>
      <trkpt lat="44.48757" lon="1.36842">
        <ele>120</ele>
        <time>2024-03-22T11:48:49Z</time>
      </trkpt>
      <trkpt lat="44.48759" lon="1.36836">
        <ele>119</ele>
        <time>2024-03-22T11:48:55Z</time>
      </trkpt>
      <trkpt lat="44.48762" lon="1.36841">
        <ele>120</ele>
        <time>2024-03-22T11:49:02Z</time>
      </trkpt>
      <trkpt lat="44.48753" lon="1.36828">
        <ele>119</ele>
        <time>2024-03-22T11:49:19Z</time>
      </trkpt>
      <trkpt lat="44.48754" lon="1.36827">
        <ele>119</ele>
        <time>2024-03-22T11:49:20Z</time>
      </trkpt>
      <trkpt lat="44.48751" lon="1.36822">
        <ele>118</ele>
        <time>2024-03-22T11:49:27Z</time>
      </trkpt>
      <trkpt lat="44.48751" lon="1.36823">
        <ele>118</ele>
        <time>2024-03-22T11:49:28Z</time>
      </trkpt>
      <trkpt lat="44.48753" lon="1.36822">
        <ele>118</ele>
        <time>2024-03-22T11:49:30Z</time>
      </trkpt>
      <trkpt lat="44.48751" lon="1.3682">
        <ele>118</ele>
        <time>2024-03-22T11:49:34Z</time>
      </trkpt>
      <trkpt lat="44.48752" lon="1.36819">
        <ele>118</ele>
        <time>2024-03-22T11:49:35Z</time>
      </trkpt>
      <trkpt lat="44.48751" lon="1.3682">
        <ele>118</ele>
        <time>2024-03-22T11:49:37Z</time>
      </trkpt>
      <trkpt lat="44.4875" lon="1.36818">
        <ele>118</ele>
        <time>2024-03-22T11:49:39Z</time>
      </trkpt>
      <trkpt lat="44.48756" lon="1.36814">
        <ele>118</ele>
        <time>2024-03-22T11:49:48Z</time>
      </trkpt>
      <trkpt lat="44.48774" lon="1.36821">
        <ele>118</ele>
        <time>2024-03-22T11:50:13Z</time>
      </trkpt>
      <trkpt lat="44.48791" lon="1.36822">
        <ele>118</ele>
        <time>2024-03-22T11:50:36Z</time>
      </trkpt>
      <trkpt lat="44.48857" lon="1.36817">
        <ele>118</ele>
        <time>2024-03-22T11:52:04Z</time>
      </trkpt>
      <trkpt lat="44.48871" lon="1.36815">
        <ele>118</ele>
        <time>2024-03-22T11:52:23Z</time>
      </trkpt>
      <trkpt lat="44.48885" lon="1.36806">
        <ele>117</ele>
        <time>2024-03-22T11:52:43Z</time>
      </trkpt>
      <trkpt lat="44.48885" lon="1.36803">
        <ele>117</ele>
        <time>2024-03-22T11:52:46Z</time>
      </trkpt>
      <trkpt lat="44.48889" lon="1.36799">
        <ele>117</ele>
        <time>2024-03-22T11:52:53Z</time>
      </trkpt>
      <trkpt lat="44.48898" lon="1.36759">
        <ele>114</ele>
        <time>2024-03-22T11:53:33Z</time>
      </trkpt>
      <trkpt lat="44.48916" lon="1.36559">
        <ele>116</ele>
        <time>2024-03-22T11:56:45Z</time>
      </trkpt>
      <trkpt lat="44.48919" lon="1.36549">
        <ele>117</ele>
        <time>2024-03-22T11:56:55Z</time>
      </trkpt>
      <trkpt lat="44.48926" lon="1.36537">
        <ele>119</ele>
        <time>2024-03-22T11:57:10Z</time>
      </trkpt>
      <trkpt lat="44.48937" lon="1.36531">
        <ele>120</ele>
        <time>2024-03-22T11:57:25Z</time>
      </trkpt>
      <trkpt lat="44.48959" lon="1.3653">
        <ele>120</ele>
        <time>2024-03-22T11:57:55Z</time>
      </trkpt>
      <trkpt lat="44.48993" lon="1.36531">
        <ele>121</ele>
        <time>2024-03-22T11:58:40Z</time>
      </trkpt>
      <trkpt lat="44.49068" lon="1.36526">
        <ele>119</ele>
        <time>2024-03-22T12:00:20Z</time>
      </trkpt>
      <trkpt lat="44.49118" lon="1.36519">
        <ele>118</ele>
        <time>2024-03-22T12:01:27Z</time>
      </trkpt>
      <trkpt lat="44.49154" lon="1.36516">
        <ele>118</ele>
        <time>2024-03-22T12:02:16Z</time>
      </trkpt>
      <trkpt lat="44.49243" lon="1.36527">
        <ele>116</ele>
        <time>2024-03-22T12:04:15Z</time>
      </trkpt>
      <trkpt lat="44.49268" lon="1.36525">
        <ele>117</ele>
        <time>2024-03-22T12:04:48Z</time>
      </trkpt>
      <trkpt lat="44.4929" lon="1.36521">
        <ele>117</ele>
        <time>2024-03-22T12:05:18Z</time>
      </trkpt>
      <trkpt lat="44.49306" lon="1.36513">
        <ele>117</ele>
        <time>2024-03-22T12:05:41Z</time>
      </trkpt>
      <trkpt lat="44.49327" lon="1.36506">
        <ele>118</ele>
        <time>2024-03-22T12:06:09Z</time>
      </trkpt>
      <trkpt lat="44.49345" lon="1.36502">
        <ele>118</ele>
        <time>2024-03-22T12:06:34Z</time>
      </trkpt>
      <trkpt lat="44.49369" lon="1.36502">
        <ele>119</ele>
        <time>2024-03-22T12:07:06Z</time>
      </trkpt>
      <trkpt lat="44.49386" lon="1.36504">
        <ele>119</ele>
        <time>2024-03-22T12:07:28Z</time>
      </trkpt>
      <trkpt lat="44.49402" lon="1.36508">
        <ele>119</ele>
        <time>2024-03-22T12:07:50Z</time>
      </trkpt>
      <trkpt lat="44.4944" lon="1.3652">
        <ele>120</ele>
        <time>2024-03-22T12:08:42Z</time>
      </trkpt>
      <trkpt lat="44.49478" lon="1.36537">
        <ele>120</ele>
        <time>2024-03-22T12:09:35Z</time>
      </trkpt>
      <trkpt lat="44.49494" lon="1.36538">
        <ele>120</ele>
        <time>2024-03-22T12:09:57Z</time>
      </trkpt>
      <trkpt lat="44.49512" lon="1.36526">
        <ele>121</ele>
        <time>2024-03-22T12:10:23Z</time>
      </trkpt>
      <trkpt lat="44.49514" lon="1.36521">
        <ele>121</ele>
        <time>2024-03-22T12:10:29Z</time>
      </trkpt>
      <trkpt lat="44.49514" lon="1.36515">
        <ele>121</ele>
        <time>2024-03-22T12:10:34Z</time>
      </trkpt>
      <trkpt lat="44.49505" lon="1.36492">
        <ele>121</ele>
        <time>2024-03-22T12:10:59Z</time>
      </trkpt>
      <trkpt lat="44.49487" lon="1.36456">
        <ele>122</ele>
        <time>2024-03-22T12:11:41Z</time>
      </trkpt>
      <trkpt lat="44.49457" lon="1.36405">
        <ele>123</ele>
        <time>2024-03-22T12:12:44Z</time>
      </trkpt>
      <trkpt lat="44.49434" lon="1.36371">
        <ele>124</ele>
        <time>2024-03-22T12:13:29Z</time>
      </trkpt>
      <trkpt lat="44.4941" lon="1.36325">
        <ele>125</ele>
        <time>2024-03-22T12:14:23Z</time>
      </trkpt>
      <trkpt lat="44.49402" lon="1.36294">
        <ele>126</ele>
        <time>2024-03-22T12:14:54Z</time>
      </trkpt>
      <trkpt lat="44.49385" lon="1.362">
        <ele>128</ele>
        <time>2024-03-22T12:16:27Z</time>
      </trkpt>
      <trkpt lat="44.49378" lon="1.36181">
        <ele>129</ele>
        <time>2024-03-22T12:16:47Z</time>
      </trkpt>
      <trkpt lat="44.49357" lon="1.36141">
        <ele>130</ele>
        <time>2024-03-22T12:17:34Z</time>
      </trkpt>
      <trkpt lat="44.49335" lon="1.36104">
        <ele>130</ele>
        <time>2024-03-22T12:18:20Z</time>
      </trkpt>
      <trkpt lat="44.49335" lon="1.36093">
        <ele>130</ele>
        <time>2024-03-22T12:18:31Z</time>
      </trkpt>
      <trkpt lat="44.49354" lon="1.361">
        <ele>130</ele>
        <time>2024-03-22T12:18:57Z</time>
      </trkpt>
      <trkpt lat="44.49387" lon="1.36119">
        <ele>129</ele>
        <time>2024-03-22T12:19:45Z</time>
      </trkpt>
      <trkpt lat="44.49412" lon="1.36128">
        <ele>129</ele>
        <time>2024-03-22T12:20:19Z</time>
      </trkpt>
      <trkpt lat="44.49418" lon="1.36113">
        <ele>128</ele>
        <time>2024-03-22T12:20:35Z</time>
      </trkpt>
      <trkpt lat="44.49417" lon="1.36111">
        <ele>128</ele>
        <time>2024-03-22T12:20:38Z</time>
      </trkpt>
      <trkpt lat="44.49418" lon="1.36035">
        <ele>127</ele>
        <time>2024-03-22T12:21:50Z</time>
      </trkpt>
      <trkpt lat="44.49416" lon="1.36007">
        <ele>126</ele>
        <time>2024-03-22T12:22:17Z</time>
      </trkpt>
      <trkpt lat="44.49418" lon="1.35968">
        <ele>126</ele>
        <time>2024-03-22T12:22:54Z</time>
      </trkpt>
      <trkpt lat="44.49412" lon="1.35918">
        <ele>125</ele>
        <time>2024-03-22T12:23:42Z</time>
      </trkpt>
      <trkpt lat="44.49384" lon="1.35812">
        <ele>124</ele>
        <time>2024-03-22T12:25:30Z</time>
      </trkpt>
      <trkpt lat="44.49358" lon="1.35728">
        <ele>125</ele>
        <time>2024-03-22T12:26:57Z</time>
      </trkpt>
      <trkpt lat="44.49333" lon="1.35671">
        <ele>125</ele>
        <time>2024-03-22T12:28:01Z</time>
      </trkpt>
      <trkpt lat="44.49302" lon="1.35619">
        <ele>125</ele>
        <time>2024-03-22T12:29:05Z</time>
      </trkpt>
      <trkpt lat="44.49284" lon="1.35575">
        <ele>125</ele>
        <time>2024-03-22T12:29:54Z</time>
      </trkpt>
      <trkpt lat="44.49263" lon="1.35533">
        <ele>125</ele>
        <time>2024-03-22T12:30:42Z</time>
      </trkpt>
      <trkpt lat="44.49252" lon="1.35515">
        <ele>124</ele>
        <time>2024-03-22T12:31:05Z</time>
      </trkpt>
      <trkpt lat="44.49229" lon="1.35491">
        <ele>123</ele>
        <time>2024-03-22T12:31:43Z</time>
      </trkpt>
      <trkpt lat="44.49185" lon="1.35459">
        <ele>122</ele>
        <time>2024-03-22T12:32:49Z</time>
      </trkpt>
      <trkpt lat="44.49168" lon="1.35449">
        <ele>122</ele>
        <time>2024-03-22T12:33:14Z</time>
      </trkpt>
      <trkpt lat="44.4915" lon="1.35441">
        <ele>121</ele>
        <time>2024-03-22T12:33:39Z</time>
      </trkpt>
      <trkpt lat="44.49117" lon="1.35433">
        <ele>120</ele>
        <time>2024-03-22T12:34:24Z</time>
      </trkpt>
      <trkpt lat="44.49081" lon="1.35422">
        <ele>118</ele>
        <time>2024-03-22T12:35:13Z</time>
      </trkpt>
      <trkpt lat="44.49032" lon="1.35395">
        <ele>116</ele>
        <time>2024-03-22T12:36:23Z</time>
      </trkpt>
      <trkpt lat="44.49014" lon="1.35387">
        <ele>115</ele>
        <time>2024-03-22T12:36:48Z</time>
      </trkpt>
      <trkpt lat="44.48981" lon="1.35378">
        <ele>114</ele>
        <time>2024-03-22T12:37:33Z</time>
      </trkpt>
      <trkpt lat="44.48969" lon="1.35338">
        <ele>114</ele>
        <time>2024-03-22T12:38:15Z</time>
      </trkpt>
    </trkseg>
  </trk>
</gpx>